createdAt,value
2023-12-21T00:00:24.074Z,88.58
2023-12-21T00:01:17.166Z,88.61
2023-12-21T00:01:52.493Z,88.54
2023-12-21T00:02:25.807Z,88.64
2023-12-21T00:02:59.459Z,88.68
2023-12-21T00:03:32.609Z,88.66
2023-12-21T00:04:05.673Z,88.53
2023-12-21T00:04:38.795Z,88.69
2023-12-21T00:05:11.889Z,88.77
2023-12-21T00:05:45.038Z,88.55
2023-12-21T00:06:18.169Z,88.76
2023-12-21T00:06:51.090Z,88.82
2023-12-21T00:07:24.167Z,89.03
2023-12-21T00:07:57.345Z,89.17
2023-12-21T00:08:30.600Z,88.89
2023-12-21T00:09:03.788Z,89.12
2023-12-21T00:09:36.773Z,88.95
2023-12-21T00:10:12.354Z,89.01
2023-12-21T00:10:45.421Z,88.88
2023-12-21T00:11:19.863Z,89.07
2023-12-21T00:11:52.723Z,88.85
2023-12-21T00:12:25.771Z,88.94
2023-12-21T00:12:59.951Z,88.91
2023-12-21T00:13:32.937Z,89.01
2023-12-21T00:14:05.942Z,88.92
2023-12-21T00:14:39.015Z,88.92
2023-12-21T00:15:12.222Z,88.94
2023-12-21T00:15:45.434Z,88.94
2023-12-21T00:16:19.891Z,88.94
2023-12-21T00:16:52.925Z,88.82
2023-12-21T00:17:25.968Z,88.94
2023-12-21T00:17:59.002Z,89.01
2023-12-21T00:18:34.493Z,89.06
2023-12-21T00:19:07.641Z,89.09
2023-12-21T00:19:40.834Z,88.69
2023-12-21T00:20:14.082Z,88.71
2023-12-21T00:20:47.124Z,88.69
2023-12-21T00:21:20.103Z,88.73
2023-12-21T00:21:53.199Z,88.43
2023-12-21T00:22:26.395Z,88.22
2023-12-21T00:23:01.485Z,88.37
2023-12-21T00:23:34.385Z,88.33
2023-12-21T00:24:07.416Z,88.23
2023-12-21T00:24:40.405Z,88.23
2023-12-21T00:25:13.429Z,88.21
2023-12-21T00:25:46.450Z,88.31
2023-12-21T00:26:19.474Z,88.43
2023-12-21T00:26:52.579Z,88.39
2023-12-21T00:27:25.497Z,88.37
2023-12-21T00:27:59.602Z,88.43
2023-12-21T00:28:32.760Z,88.65
2023-12-21T00:29:05.849Z,88.63
2023-12-21T00:29:38.754Z,88.52
2023-12-21T00:30:12.172Z,88.44
2023-12-21T00:30:45.304Z,88.55
2023-12-21T00:31:18.481Z,88.56
2023-12-21T00:31:51.534Z,88.46
2023-12-21T00:32:24.438Z,88.39
2023-12-21T00:32:57.747Z,88.47
2023-12-21T00:33:30.836Z,88.67
2023-12-21T00:34:04.221Z,88.75
2023-12-21T00:34:37.665Z,88.74
2023-12-21T00:35:10.827Z,88.44
2023-12-21T00:35:43.710Z,88.55
2023-12-21T00:36:17.816Z,88.43
2023-12-21T00:36:55.947Z,88.53
2023-12-21T00:37:37.674Z,88.63
2023-12-21T00:38:11.603Z,88.55
2023-12-21T00:38:44.924Z,88.63
2023-12-21T00:39:17.944Z,88.45
2023-12-21T00:39:54.096Z,88.60
2023-12-21T00:40:27.948Z,88.42
2023-12-21T00:41:05.518Z,88.50
2023-12-21T00:41:38.366Z,88.61
2023-12-21T00:42:16.185Z,88.54
2023-12-21T00:42:49.485Z,88.73
2023-12-21T00:43:22.476Z,88.66
2023-12-21T00:44:01.399Z,88.51
2023-12-21T00:44:35.526Z,88.58
2023-12-21T00:45:13.105Z,88.55
2023-12-21T00:45:46.184Z,88.47
2023-12-21T00:46:19.251Z,88.50
2023-12-21T00:46:54.512Z,88.42
2023-12-21T00:47:27.487Z,88.32
2023-12-21T00:48:00.683Z,88.38
2023-12-21T00:48:37.482Z,88.36
2023-12-21T00:49:12.751Z,88.34
2023-12-21T00:49:46.185Z,88.40
2023-12-21T00:50:19.309Z,88.52
2023-12-21T00:50:52.230Z,88.44
2023-12-21T00:51:25.353Z,88.64
2023-12-21T00:51:58.305Z,88.70
2023-12-21T00:52:31.443Z,88.41
2023-12-21T00:53:04.589Z,88.71
2023-12-21T00:53:37.468Z,88.50
2023-12-21T00:54:10.537Z,88.41
2023-12-21T00:54:43.354Z,88.43
2023-12-21T00:55:16.253Z,88.54
2023-12-21T00:55:49.385Z,88.57
2023-12-21T00:56:22.218Z,88.66
2023-12-21T00:56:55.247Z,88.60
2023-12-21T00:57:28.180Z,88.56
2023-12-21T00:58:01.356Z,88.60
2023-12-21T00:58:34.464Z,88.77
2023-12-21T00:59:07.570Z,88.65
2023-12-21T00:59:41.425Z,88.66
2023-12-21T01:00:15.156Z,88.60
2023-12-21T01:00:48.289Z,88.43
2023-12-21T01:01:21.522Z,88.58
2023-12-21T01:01:54.702Z,88.54
2023-12-21T01:02:27.799Z,88.61
2023-12-21T01:03:00.762Z,88.45
2023-12-21T01:03:34.107Z,88.39
2023-12-21T01:04:07.349Z,88.49
2023-12-21T01:04:40.344Z,88.52
2023-12-21T01:05:13.278Z,88.33
2023-12-21T01:05:46.329Z,88.33
2023-12-21T01:06:19.868Z,88.36
2023-12-21T01:06:52.842Z,88.37
2023-12-21T01:07:25.906Z,88.62
2023-12-21T01:07:59.436Z,88.31
2023-12-21T01:08:32.424Z,88.39
2023-12-21T01:09:05.439Z,88.60
2023-12-21T01:09:39.899Z,88.60
2023-12-21T01:10:13.072Z,88.48
2023-12-21T01:10:46.697Z,88.64
2023-12-21T01:11:19.745Z,88.71
2023-12-21T01:11:52.917Z,88.78
2023-12-21T01:12:26.152Z,88.89
2023-12-21T01:12:59.578Z,88.63
2023-12-21T01:13:33.783Z,88.52
2023-12-21T01:14:07.000Z,88.58
2023-12-21T01:14:40.062Z,88.55
2023-12-21T01:15:12.977Z,88.63
2023-12-21T01:15:45.981Z,88.55
2023-12-21T01:16:19.515Z,88.40
2023-12-21T01:16:52.558Z,88.62
2023-12-21T01:17:26.041Z,88.62
2023-12-21T01:17:59.290Z,88.71
2023-12-21T01:18:32.415Z,88.63
2023-12-21T01:19:05.454Z,88.65
2023-12-21T01:19:38.783Z,88.61
2023-12-21T01:20:12.013Z,88.76
2023-12-21T01:20:45.142Z,88.98
2023-12-21T01:21:17.957Z,89.19
2023-12-21T01:21:50.979Z,89.13
2023-12-21T01:22:24.086Z,89.04
2023-12-21T01:22:57.119Z,88.99
2023-12-21T01:23:30.307Z,88.92
2023-12-21T01:24:03.432Z,89.00
2023-12-21T01:24:36.430Z,89.14
2023-12-21T01:25:09.588Z,89.16
2023-12-21T01:25:42.578Z,88.97
2023-12-21T01:26:15.570Z,89.10
2023-12-21T01:26:48.512Z,88.92
2023-12-21T01:27:30.240Z,88.95
2023-12-21T01:28:06.061Z,89.00
2023-12-21T01:28:39.113Z,88.86
2023-12-21T01:29:12.224Z,88.61
2023-12-21T01:29:45.249Z,88.76
2023-12-21T01:30:18.233Z,88.73
2023-12-21T01:30:51.564Z,88.79
2023-12-21T01:31:24.537Z,88.72
2023-12-21T01:31:58.925Z,88.66
2023-12-21T01:32:32.243Z,88.79
2023-12-21T01:50:44.089Z,90.29
2023-12-21T01:51:18.575Z,90.25
2023-12-21T01:51:52.139Z,90.38
2023-12-21T01:52:25.297Z,90.30
2023-12-21T01:53:00.895Z,90.48
2023-12-21T01:53:34.370Z,90.35
2023-12-21T01:54:08.525Z,90.34
2023-12-21T01:54:42.561Z,90.23
2023-12-21T01:55:17.235Z,90.19
2023-12-21T01:55:50.365Z,90.05
2023-12-21T01:56:23.443Z,90.08
2023-12-21T01:56:56.377Z,89.79
2023-12-21T01:57:29.517Z,90.03
2023-12-21T01:58:02.536Z,89.98
2023-12-21T01:58:36.430Z,89.88
2023-12-21T01:59:09.407Z,90.06
2023-12-21T01:59:42.700Z,89.74
2023-12-21T02:02:16.897Z,89.59
2023-12-21T02:02:50.521Z,89.75
2023-12-21T02:03:23.696Z,89.71
2023-12-21T02:03:56.751Z,89.99
2023-12-21T02:04:30.049Z,89.94
2023-12-21T02:05:03.459Z,89.78
2023-12-21T02:05:36.573Z,89.72
2023-12-21T02:06:09.573Z,89.66
2023-12-21T02:06:42.673Z,89.49
2023-12-21T02:07:17.363Z,89.35
2023-12-21T02:07:50.813Z,89.45
2023-12-21T02:08:24.034Z,89.51
2023-12-21T02:08:57.230Z,89.49
2023-12-21T02:09:30.387Z,89.50
2023-12-21T02:10:03.851Z,89.23
2023-12-21T02:10:40.811Z,89.30
2023-12-21T02:11:14.098Z,89.17
2023-12-21T02:11:47.928Z,89.28
2023-12-21T02:12:20.858Z,89.19
2023-12-21T02:12:53.846Z,89.04
2023-12-21T02:13:26.932Z,89.10
2023-12-21T02:14:00.108Z,89.22
2023-12-21T02:14:33.126Z,89.28
2023-12-21T02:15:08.363Z,89.02
2023-12-21T02:15:41.324Z,89.05
2023-12-21T02:16:20.903Z,89.08
2023-12-21T02:17:00.616Z,89.05
2023-12-21T02:17:35.032Z,89.06
2023-12-21T02:18:10.229Z,89.15
2023-12-21T02:18:43.954Z,88.99
2023-12-21T02:19:19.735Z,88.85
2023-12-21T02:19:53.482Z,88.79
2023-12-21T02:20:26.737Z,88.76
2023-12-21T02:21:00.189Z,88.54
2023-12-21T02:21:36.342Z,88.55
2023-12-21T02:22:12.004Z,88.69
2023-12-21T02:22:48.318Z,88.83
2023-12-21T02:23:22.961Z,88.52
2023-12-21T02:23:58.619Z,88.73
2023-12-21T02:24:31.902Z,88.49
2023-12-21T02:25:05.680Z,88.68
2023-12-21T02:25:39.118Z,88.65
2023-12-21T02:26:12.555Z,88.68
2023-12-21T02:26:45.724Z,88.69
2023-12-21T02:27:18.728Z,88.60
2023-12-21T02:27:51.801Z,88.75
2023-12-21T02:28:25.157Z,88.64
2023-12-21T02:28:58.250Z,88.86
2023-12-21T02:29:31.265Z,88.69
2023-12-21T02:30:04.948Z,89.03
2023-12-21T02:30:38.015Z,88.82
2023-12-21T02:31:10.973Z,88.67
2023-12-21T02:31:44.068Z,88.97
2023-12-21T02:32:17.644Z,89.13
2023-12-21T02:32:51.149Z,89.09
2023-12-21T02:33:24.382Z,89.09
2023-12-21T02:33:58.292Z,89.15
2023-12-21T02:34:32.167Z,88.90
2023-12-21T02:35:08.301Z,89.12
2023-12-21T02:35:41.543Z,89.10
2023-12-21T02:36:14.481Z,88.97
2023-12-21T02:36:47.345Z,89.23
2023-12-21T02:37:20.941Z,89.24
2023-12-21T02:37:54.007Z,89.33
2023-12-21T02:38:26.925Z,89.07
2023-12-21T02:39:00.152Z,88.99
2023-12-21T02:39:33.212Z,89.08
2023-12-21T02:40:06.326Z,89.30
2023-12-21T02:40:39.439Z,89.14
2023-12-21T02:41:12.564Z,89.29
2023-12-21T02:41:48.569Z,89.24
2023-12-21T02:42:21.544Z,89.34
2023-12-21T02:42:54.499Z,89.40
2023-12-21T02:43:27.946Z,89.54
2023-12-21T02:44:01.024Z,89.35
2023-12-21T02:44:33.942Z,89.40
2023-12-21T02:45:07.389Z,89.45
2023-12-21T02:45:40.386Z,89.52
2023-12-21T02:46:13.779Z,89.49
2023-12-21T02:46:46.792Z,89.45
2023-12-21T02:47:19.874Z,89.46
2023-12-21T02:47:52.794Z,89.37
2023-12-21T02:48:25.862Z,89.41
2023-12-21T02:48:59.375Z,89.39
2023-12-21T02:49:32.579Z,89.55
2023-12-21T02:50:06.333Z,89.53
2023-12-21T02:50:39.428Z,89.59
2023-12-21T02:51:12.346Z,89.80
2023-12-21T02:51:45.344Z,89.52
2023-12-21T02:52:18.569Z,89.72
2023-12-21T02:52:51.741Z,89.68
2023-12-21T02:53:24.833Z,89.59
2023-12-21T02:53:57.774Z,89.61
2023-12-21T02:54:30.852Z,89.59
2023-12-21T02:55:04.235Z,89.58
2023-12-21T02:55:37.478Z,89.78
2023-12-21T02:56:10.529Z,89.95
2023-12-21T02:56:43.430Z,90.00
2023-12-21T02:57:16.296Z,89.80
2023-12-21T02:57:49.269Z,89.59
2023-12-21T02:58:22.425Z,89.81
2023-12-21T02:58:55.493Z,89.72
2023-12-21T02:59:28.363Z,89.62
2023-12-21T03:00:01.651Z,89.64
2023-12-21T03:00:35.386Z,89.80
2023-12-21T03:01:08.632Z,89.93
2023-12-21T03:01:43.063Z,90.00
2023-12-21T03:02:16.760Z,90.08
2023-12-21T03:02:49.889Z,89.74
2023-12-21T03:03:23.101Z,89.76
2023-12-21T03:03:56.364Z,89.73
2023-12-21T03:04:29.438Z,89.73
2023-12-21T03:05:02.412Z,89.94
2023-12-21T03:05:35.557Z,89.68
2023-12-21T03:06:08.555Z,89.87
2023-12-21T03:06:41.564Z,89.71
2023-12-21T03:07:14.510Z,89.84
2023-12-21T03:07:47.497Z,89.84
2023-12-21T03:08:21.262Z,89.94
2023-12-21T03:08:54.610Z,89.77
2023-12-21T03:09:28.008Z,89.91
2023-12-21T03:10:01.084Z,89.98
2023-12-21T03:10:34.258Z,90.08
2023-12-21T03:11:08.015Z,90.42
2023-12-21T03:11:41.105Z,89.90
2023-12-21T03:12:14.101Z,90.11
2023-12-21T03:12:47.337Z,89.80
2023-12-21T03:13:20.621Z,90.14
2023-12-21T03:13:53.531Z,90.08
2023-12-21T03:14:26.589Z,90.25
2023-12-21T03:14:59.470Z,90.12
2023-12-21T03:15:33.146Z,90.30
2023-12-21T03:16:10.628Z,90.41
2023-12-21T03:16:43.742Z,90.27
2023-12-21T03:17:16.634Z,90.27
2023-12-21T03:17:49.548Z,90.17
2023-12-21T03:18:22.651Z,90.23
2023-12-21T03:18:55.740Z,90.20
2023-12-21T03:19:28.863Z,90.32
2023-12-21T03:20:03.833Z,90.42
2023-12-21T03:20:37.099Z,90.38
2023-12-21T03:21:11.113Z,90.54
2023-12-21T03:21:44.124Z,90.53
2023-12-21T03:22:17.090Z,90.46
2023-12-21T03:22:50.675Z,90.40
2023-12-21T03:23:23.791Z,90.57
2023-12-21T03:23:57.766Z,90.61
2023-12-21T03:24:30.731Z,90.57
2023-12-21T03:25:03.790Z,90.60
2023-12-21T03:25:37.015Z,90.60
2023-12-21T03:26:10.578Z,90.56
2023-12-21T03:26:45.771Z,90.53
2023-12-21T03:27:19.792Z,90.64
2023-12-21T03:27:52.886Z,90.41
2023-12-21T03:28:25.775Z,90.25
2023-12-21T03:28:58.854Z,90.33
2023-12-21T03:29:31.705Z,90.23
2023-12-21T03:30:05.187Z,90.26
2023-12-21T03:30:38.141Z,90.49
2023-12-21T03:31:11.810Z,90.46
2023-12-21T03:31:44.949Z,90.57
2023-12-21T03:32:17.972Z,90.66
2023-12-21T03:32:51.118Z,90.64
2023-12-21T03:33:24.466Z,90.34
2023-12-21T03:33:57.559Z,90.46
2023-12-21T03:34:30.567Z,90.38
2023-12-21T03:35:04.485Z,90.58
2023-12-21T03:35:37.587Z,90.36
2023-12-21T03:36:12.192Z,90.51
2023-12-21T03:36:45.188Z,90.24
2023-12-21T03:37:18.126Z,90.48
2023-12-21T03:37:51.187Z,90.59
2023-12-21T03:38:24.175Z,90.76
2023-12-21T03:38:57.129Z,90.71
2023-12-21T03:39:30.013Z,90.69
2023-12-21T03:40:03.254Z,90.85
2023-12-21T03:40:36.275Z,90.86
2023-12-21T03:41:09.151Z,90.77
2023-12-21T03:41:42.044Z,90.86
2023-12-21T03:42:15.056Z,90.88
2023-12-21T03:42:53.286Z,91.39
2023-12-21T03:43:28.749Z,91.28
2023-12-21T03:44:03.593Z,91.26
2023-12-21T03:44:36.728Z,91.58
2023-12-21T03:45:10.177Z,91.52
2023-12-21T03:45:43.238Z,91.51
2023-12-21T03:46:16.316Z,91.44
2023-12-21T03:46:49.346Z,91.41
2023-12-21T03:47:22.345Z,91.26
2023-12-21T03:47:55.429Z,91.69
2023-12-21T03:48:44.052Z,91.21
2023-12-21T03:49:17.195Z,91.57
2023-12-21T03:49:50.180Z,91.47
2023-12-21T03:50:23.180Z,91.34
2023-12-21T03:50:56.094Z,91.63
2023-12-21T03:51:29.104Z,91.48
2023-12-21T03:52:02.115Z,91.54
2023-12-21T03:52:35.209Z,91.70
2023-12-21T03:53:11.755Z,91.70
2023-12-21T03:53:44.765Z,91.41
2023-12-21T03:54:18.067Z,91.35
2023-12-21T03:54:51.093Z,91.47
2023-12-21T03:55:24.194Z,91.65
2023-12-21T03:55:57.224Z,91.72
2023-12-21T03:56:30.229Z,91.43
2023-12-21T03:57:03.203Z,91.56
2023-12-21T03:57:36.367Z,91.49
2023-12-21T03:58:09.763Z,91.55
2023-12-21T03:58:42.906Z,91.58
2023-12-21T03:59:15.920Z,91.40
2023-12-21T03:59:49.016Z,91.68
2023-12-21T04:00:22.243Z,91.39
2023-12-21T04:00:55.371Z,91.46
2023-12-21T04:01:30.715Z,91.47
2023-12-21T04:02:05.468Z,91.48
2023-12-21T04:02:38.371Z,91.65
2023-12-21T04:03:11.542Z,91.31
2023-12-21T04:03:44.529Z,91.04
2023-12-21T04:04:17.485Z,90.92
2023-12-21T04:04:50.459Z,90.83
2023-12-21T04:05:23.722Z,90.69
2023-12-21T04:05:57.012Z,91.03
2023-12-21T04:06:30.027Z,90.99
2023-12-21T04:07:03.143Z,90.94
2023-12-21T04:07:36.191Z,90.88
2023-12-21T04:08:09.282Z,90.74
2023-12-21T04:08:42.096Z,90.84
2023-12-21T04:09:15.186Z,90.86
2023-12-21T04:09:48.200Z,90.99
2023-12-21T04:10:21.159Z,90.97
2023-12-21T04:10:54.183Z,91.05
2023-12-21T04:11:27.101Z,91.08
2023-12-21T04:12:00.707Z,91.05
2023-12-21T04:12:33.795Z,90.93
2023-12-21T04:13:06.714Z,90.84
2023-12-21T04:13:39.836Z,90.85
2023-12-21T04:14:12.846Z,90.94
2023-12-21T04:14:45.850Z,90.82
2023-12-21T04:15:18.767Z,90.83
2023-12-21T04:15:52.621Z,90.77
2023-12-21T04:16:25.657Z,90.83
2023-12-21T04:16:58.620Z,90.68
2023-12-21T04:17:31.663Z,91.09
2023-12-21T04:18:04.864Z,91.24
2023-12-21T04:18:38.589Z,91.21
2023-12-21T04:19:11.685Z,90.96
2023-12-21T04:19:44.601Z,90.93
2023-12-21T04:20:17.692Z,90.69
2023-12-21T04:20:50.808Z,90.59
2023-12-21T04:21:23.738Z,90.55
2023-12-21T04:21:56.784Z,90.35
2023-12-21T04:22:29.665Z,90.19
2023-12-21T04:23:02.799Z,90.44
2023-12-21T04:23:36.128Z,90.30
2023-12-21T04:24:09.137Z,90.62
2023-12-21T04:24:42.226Z,90.63
2023-12-21T04:25:15.062Z,90.54
2023-12-21T04:25:48.045Z,90.59
2023-12-21T04:26:23.314Z,90.72
2023-12-21T04:26:56.309Z,90.61
2023-12-21T04:27:29.903Z,90.78
2023-12-21T04:28:03.705Z,90.94
2023-12-21T04:28:38.428Z,90.95
2023-12-21T04:29:11.394Z,90.98
2023-12-21T04:29:44.287Z,90.99
2023-12-21T04:30:17.295Z,91.12
2023-12-21T04:30:50.342Z,91.07
2023-12-21T04:31:23.645Z,90.81
2023-12-21T04:31:56.698Z,90.85
2023-12-21T04:32:29.587Z,91.00
2023-12-21T04:33:02.765Z,91.20
2023-12-21T04:33:38.982Z,91.02
2023-12-21T04:34:12.157Z,91.29
2023-12-21T04:34:45.511Z,91.15
2023-12-21T04:35:18.340Z,90.90
2023-12-21T04:35:51.319Z,90.99
2023-12-21T04:36:26.011Z,90.94
2023-12-21T04:36:59.312Z,91.12
2023-12-21T04:37:32.429Z,91.01
2023-12-21T04:38:05.547Z,91.24
2023-12-21T04:38:38.779Z,90.82
2023-12-21T04:39:12.022Z,90.88
2023-12-21T04:39:45.122Z,91.23
2023-12-21T04:40:18.157Z,91.08
2023-12-21T04:40:51.273Z,90.87
2023-12-21T04:41:24.315Z,90.85
2023-12-21T04:41:57.262Z,90.66
2023-12-21T04:42:31.398Z,90.76
2023-12-21T04:43:05.397Z,91.03
2023-12-21T04:43:38.756Z,91.29
2023-12-21T04:44:11.792Z,91.21
2023-12-21T04:44:44.682Z,91.20
2023-12-21T04:45:18.086Z,91.26
2023-12-21T04:45:51.004Z,91.26
2023-12-21T04:46:24.321Z,91.12
2023-12-21T04:46:57.437Z,91.23
2023-12-21T04:47:30.433Z,91.07
2023-12-21T04:48:03.709Z,90.99
2023-12-21T04:48:36.774Z,90.89
2023-12-21T04:49:09.896Z,90.98
2023-12-21T04:49:42.967Z,91.09
2023-12-21T04:50:16.462Z,90.82
2023-12-21T04:50:49.446Z,90.90
2023-12-21T04:51:22.618Z,90.72
2023-12-21T04:51:55.625Z,90.83
2023-12-21T04:52:28.838Z,90.69
2023-12-21T04:53:01.841Z,90.53
2023-12-21T04:53:34.886Z,90.41
2023-12-21T04:54:07.803Z,90.47
2023-12-21T04:54:41.098Z,90.59
2023-12-21T04:55:14.591Z,90.46
2023-12-21T04:55:47.670Z,90.39
2023-12-21T04:56:20.683Z,90.44
2023-12-21T04:56:53.592Z,90.44
2023-12-21T04:57:26.538Z,90.30
2023-12-21T04:57:59.524Z,90.21
2023-12-21T04:58:32.494Z,90.22
2023-12-21T04:59:05.589Z,90.42
2023-12-21T04:59:41.892Z,90.49
2023-12-21T05:00:15.498Z,90.45
2023-12-21T05:00:52.266Z,90.57
2023-12-21T05:01:25.674Z,90.58
2023-12-21T05:01:59.830Z,90.52
2023-12-21T05:02:32.904Z,90.43
2023-12-21T05:03:06.012Z,90.44
2023-12-21T05:03:39.285Z,90.22
2023-12-21T05:04:12.349Z,90.15
2023-12-21T05:04:45.323Z,90.42
2023-12-21T05:05:20.886Z,90.24
2023-12-21T05:05:54.149Z,90.16
2023-12-21T05:06:27.313Z,90.25
2023-12-21T05:07:00.487Z,90.24
2023-12-21T05:07:33.562Z,90.20
2023-12-21T05:08:06.669Z,90.26
2023-12-21T05:08:39.612Z,90.01
2023-12-21T05:09:12.631Z,90.14
2023-12-21T05:09:45.633Z,90.13
2023-12-21T05:10:18.612Z,90.21
2023-12-21T05:10:51.780Z,90.46
2023-12-21T05:11:24.890Z,90.40
2023-12-21T05:11:58.083Z,90.35
2023-12-21T05:12:31.143Z,90.54
2023-12-21T05:13:04.367Z,90.54
2023-12-21T05:13:37.460Z,90.31
2023-12-21T05:14:10.559Z,90.08
2023-12-21T05:14:43.462Z,89.98
2023-12-21T05:15:16.468Z,90.05
2023-12-21T05:15:49.390Z,89.96
2023-12-21T05:16:22.344Z,89.84
2023-12-21T05:16:55.299Z,89.84
2023-12-21T05:17:28.380Z,89.81
2023-12-21T05:18:01.507Z,89.80
2023-12-21T05:18:36.787Z,89.80
2023-12-21T05:19:10.028Z,89.86
2023-12-21T05:19:43.881Z,89.79
2023-12-21T05:20:16.923Z,90.09
2023-12-21T05:20:50.064Z,90.17
2023-12-21T05:21:23.305Z,89.80
2023-12-21T05:21:56.340Z,89.97
2023-12-21T05:22:29.236Z,89.93
2023-12-21T05:23:02.367Z,89.78
2023-12-21T05:23:35.423Z,89.88
2023-12-21T05:24:08.343Z,89.53
2023-12-21T05:24:41.408Z,89.71
2023-12-21T05:25:17.492Z,89.60
2023-12-21T05:25:50.464Z,89.75
2023-12-21T05:26:23.434Z,89.81
2023-12-21T05:26:56.500Z,89.75
2023-12-21T05:27:29.485Z,89.83
2023-12-21T05:28:02.600Z,89.66
2023-12-21T05:28:35.513Z,89.80
2023-12-21T05:29:08.517Z,89.80
2023-12-21T05:29:42.980Z,89.88
2023-12-21T05:30:18.509Z,90.09
2023-12-21T05:30:52.626Z,90.06
2023-12-21T05:31:25.963Z,89.97
2023-12-21T05:31:58.956Z,89.91
2023-12-21T05:32:32.032Z,89.91
2023-12-21T05:33:05.173Z,89.83
2023-12-21T05:33:38.147Z,89.72
2023-12-21T05:34:11.259Z,89.75
2023-12-21T05:34:44.654Z,89.61
2023-12-21T05:35:18.240Z,89.68
2023-12-21T05:35:51.347Z,89.64
2023-12-21T05:36:24.905Z,89.64
2023-12-21T05:36:58.499Z,89.83
2023-12-21T05:37:31.688Z,89.71
2023-12-21T05:38:04.965Z,89.87
2023-12-21T05:38:38.112Z,89.92
2023-12-21T05:39:17.876Z,89.85
2023-12-21T05:39:52.075Z,89.76
2023-12-21T05:40:25.182Z,90.01
2023-12-21T05:40:58.283Z,90.11
2023-12-21T05:41:31.137Z,90.19
2023-12-21T05:42:04.187Z,90.05
2023-12-21T05:42:37.239Z,90.20
2023-12-21T05:43:10.143Z,90.21
2023-12-21T05:43:43.945Z,90.37
2023-12-21T05:44:16.915Z,90.40
2023-12-21T05:44:50.092Z,90.34
2023-12-21T05:45:23.132Z,90.53
2023-12-21T05:45:56.128Z,90.37
2023-12-21T05:46:29.178Z,90.64
2023-12-21T05:47:02.113Z,90.43
2023-12-21T05:47:35.364Z,90.40
2023-12-21T05:48:08.737Z,90.49
2023-12-21T05:48:41.896Z,90.58
2023-12-21T05:49:15.116Z,90.70
2023-12-21T05:49:48.161Z,90.64
2023-12-21T05:50:21.227Z,90.73
2023-12-21T05:50:54.279Z,90.85
2023-12-21T05:51:27.232Z,90.76
2023-12-21T05:52:00.855Z,90.55
2023-12-21T05:52:33.972Z,90.73
2023-12-21T05:53:08.304Z,90.72
2023-12-21T05:53:41.393Z,90.81
2023-12-21T05:54:14.311Z,90.61
2023-12-21T05:54:47.314Z,90.84
2023-12-21T05:55:20.247Z,90.76
2023-12-21T05:55:53.357Z,90.80
2023-12-21T05:56:26.438Z,90.72
2023-12-21T05:57:00.550Z,90.83
2023-12-21T05:57:33.692Z,90.67
2023-12-21T05:58:06.671Z,90.77
2023-12-21T05:58:39.696Z,90.83
2023-12-21T05:59:12.752Z,90.72
2023-12-21T05:59:45.751Z,90.77
2023-12-21T06:00:18.822Z,90.95
2023-12-21T06:00:51.829Z,90.98
2023-12-21T06:01:25.160Z,90.87
2023-12-21T06:01:58.477Z,90.92
2023-12-21T06:02:31.684Z,90.69
2023-12-21T06:03:05.151Z,90.85
2023-12-21T06:03:38.255Z,90.83
2023-12-21T06:04:11.232Z,90.75
2023-12-21T06:04:44.322Z,90.81
2023-12-21T06:05:18.283Z,90.85
2023-12-21T06:05:51.793Z,90.65
2023-12-21T06:06:24.899Z,90.61
2023-12-21T06:06:58.178Z,90.72
2023-12-21T06:07:31.436Z,90.90
2023-12-21T06:08:04.907Z,90.75
2023-12-21T06:08:37.990Z,90.57
2023-12-21T06:09:10.989Z,90.72
2023-12-21T06:09:44.206Z,90.78
2023-12-21T06:10:17.327Z,90.89
2023-12-21T06:10:50.364Z,90.96
2023-12-21T06:11:23.388Z,90.82
2023-12-21T06:11:56.648Z,90.55
2023-12-21T06:12:29.567Z,90.55
2023-12-21T06:13:02.691Z,90.77
2023-12-21T06:13:36.656Z,90.77
2023-12-21T06:14:09.738Z,90.55
2023-12-21T06:14:43.446Z,90.42
2023-12-21T06:15:18.367Z,90.62
2023-12-21T06:15:51.338Z,90.74
2023-12-21T06:16:24.382Z,90.77
2023-12-21T06:16:57.200Z,90.85
2023-12-21T06:17:30.093Z,90.86
2023-12-21T06:18:03.317Z,90.92
2023-12-21T06:18:36.406Z,91.10
2023-12-21T06:19:11.499Z,90.89
2023-12-21T06:19:44.929Z,90.78
2023-12-21T06:20:18.412Z,91.14
2023-12-21T06:20:51.434Z,91.16
2023-12-21T06:21:25.005Z,91.10
2023-12-21T06:21:58.019Z,90.96
2023-12-21T06:22:30.982Z,91.06
2023-12-21T06:23:04.272Z,91.07
2023-12-21T06:23:37.268Z,91.12
2023-12-21T06:24:10.251Z,91.19
2023-12-21T06:24:43.369Z,91.32
2023-12-21T06:25:16.366Z,91.43
2023-12-21T06:25:49.530Z,91.23
2023-12-21T06:26:23.024Z,91.13
2023-12-21T06:26:55.980Z,91.24
2023-12-21T06:27:28.951Z,91.16
2023-12-21T06:28:01.927Z,91.14
2023-12-21T06:28:34.857Z,91.28
2023-12-21T06:29:08.096Z,91.21
2023-12-21T06:29:42.324Z,91.41
2023-12-21T06:30:15.417Z,91.19
2023-12-21T06:30:50.366Z,91.14
2023-12-21T06:31:24.436Z,91.30
2023-12-21T06:31:57.504Z,91.27
2023-12-21T06:32:30.442Z,91.32
2023-12-21T06:33:04.051Z,91.18
2023-12-21T06:33:37.144Z,91.31
2023-12-21T06:34:10.227Z,91.39
2023-12-21T06:34:43.447Z,91.37
2023-12-21T06:35:18.363Z,91.15
2023-12-21T06:35:51.446Z,91.18
2023-12-21T06:36:24.716Z,91.14
2023-12-21T06:36:57.812Z,91.04
2023-12-21T06:37:30.952Z,91.13
2023-12-21T06:38:04.137Z,91.06
2023-12-21T06:38:37.549Z,91.40
2023-12-21T06:39:10.630Z,91.01
2023-12-21T06:39:43.539Z,90.91
2023-12-21T06:40:16.652Z,90.98
2023-12-21T06:40:51.793Z,91.12
2023-12-21T06:41:24.898Z,91.05
2023-12-21T06:41:58.103Z,91.04
2023-12-21T06:42:31.619Z,91.11
2023-12-21T06:43:04.801Z,91.07
2023-12-21T06:43:38.000Z,91.05
2023-12-21T06:44:12.222Z,90.86
2023-12-21T06:44:45.248Z,90.68
2023-12-21T06:45:18.179Z,90.67
2023-12-21T06:45:51.108Z,90.56
2023-12-21T06:46:24.174Z,90.58
2023-12-21T06:46:58.063Z,90.82
2023-12-21T06:47:31.171Z,90.62
2023-12-21T06:48:04.275Z,90.81
2023-12-21T06:48:37.281Z,90.64
2023-12-21T06:49:11.011Z,90.58
2023-12-21T06:49:44.089Z,90.50
2023-12-21T06:50:17.223Z,90.46
2023-12-21T06:50:50.141Z,90.60
2023-12-21T06:51:23.176Z,90.69
2023-12-21T06:51:56.134Z,90.73
2023-12-21T06:52:29.172Z,90.76
2023-12-21T06:53:02.092Z,90.77
2023-12-21T06:53:35.166Z,90.81
2023-12-21T06:54:08.072Z,90.91
2023-12-21T06:54:41.201Z,90.71
2023-12-21T06:55:14.525Z,90.98
2023-12-21T06:55:47.801Z,90.93
2023-12-21T06:56:32.267Z,90.81
2023-12-21T06:57:07.602Z,90.99
2023-12-21T06:57:40.783Z,90.91
2023-12-21T06:58:14.097Z,91.14
2023-12-21T06:58:47.085Z,91.07
2023-12-21T06:59:20.197Z,90.80
2023-12-21T06:59:53.185Z,90.73
2023-12-21T07:00:26.167Z,90.73
2023-12-21T07:00:59.582Z,90.64
2023-12-21T07:01:32.999Z,90.81
2023-12-21T07:02:06.488Z,90.77
2023-12-21T07:02:39.566Z,90.81
2023-12-21T07:03:12.548Z,90.75
2023-12-21T07:03:45.494Z,90.80
2023-12-21T07:04:19.778Z,90.66
2023-12-21T07:04:52.806Z,90.84
2023-12-21T07:05:25.892Z,90.97
2023-12-21T07:05:59.600Z,91.00
2023-12-21T07:06:32.590Z,90.83
2023-12-21T07:07:06.624Z,90.75
2023-12-21T07:07:39.785Z,90.75
2023-12-21T07:08:12.913Z,90.82
2023-12-21T07:08:45.781Z,90.76
2023-12-21T07:09:18.890Z,90.84
2023-12-21T07:09:51.865Z,90.96
2023-12-21T07:10:24.870Z,90.93
2023-12-21T07:10:57.798Z,90.69
2023-12-21T07:11:30.737Z,90.68
2023-12-21T07:12:06.717Z,90.87
2023-12-21T07:12:39.780Z,90.93
2023-12-21T07:13:12.784Z,90.81
2023-12-21T07:13:45.986Z,91.09
2023-12-21T07:14:19.092Z,90.78
2023-12-21T07:14:51.960Z,90.82
2023-12-21T07:15:25.008Z,90.87
2023-12-21T07:15:58.008Z,90.73
2023-12-21T07:16:30.889Z,90.78
2023-12-21T07:17:03.837Z,90.84
2023-12-21T07:17:36.866Z,90.78
2023-12-21T07:18:09.765Z,90.68
2023-12-21T07:18:42.826Z,90.66
2023-12-21T07:19:15.780Z,90.65
2023-12-21T07:19:48.828Z,90.88
2023-12-21T07:20:25.974Z,90.99
2023-12-21T07:20:58.927Z,90.84
2023-12-21T07:21:31.923Z,90.83
2023-12-21T07:22:06.091Z,91.02
2023-12-21T07:22:39.307Z,91.01
2023-12-21T07:23:13.272Z,91.09
2023-12-21T07:23:46.229Z,91.01
2023-12-21T07:24:19.180Z,91.13
2023-12-21T07:24:52.930Z,90.95
2023-12-21T07:25:26.002Z,90.89
2023-12-21T07:25:59.149Z,90.83
2023-12-21T07:26:32.152Z,90.80
2023-12-21T07:27:05.193Z,90.89
2023-12-21T07:27:38.226Z,90.86
2023-12-21T07:28:11.264Z,90.89
2023-12-21T07:28:44.213Z,90.94
2023-12-21T07:29:17.230Z,90.83
2023-12-21T07:29:50.943Z,90.87
2023-12-21T07:30:23.987Z,90.88
2023-12-21T07:30:57.203Z,90.71